Terminal Aerodrome Forecast
Issued by NWS

Home | Current Version | Previous Version | Text Only | Print | Product List | Glossary On
Versions: 1 2 3 4 5 6 7 8 9 10 11 12 13 14
000
FTUS43 KICT 261130
TAFHUT
TAF
KHUT 261130Z 2612/2712 15007KT P6SM SCT090
     FM261600 VRB04KT P6SM SCT200
     FM261900 35006KT P6SM SCT200
     FM270000 08005KT P6SM SCT200=

USA.gov is the U.S. government's official web portal to all federal, state and local government web resources and services.